createdAt,value
2023-05-09T00:03:06.424Z,42.93
2023-05-09T00:08:09.164Z,42.79
2023-05-09T00:13:12.503Z,43.23
2023-05-09T00:18:15.357Z,42.33
2023-05-09T00:23:18.224Z,42.83
2023-05-09T00:28:21.057Z,43.18
2023-05-09T00:33:27.147Z,42.71
2023-05-09T00:38:29.636Z,43.58
2023-05-09T00:43:32.346Z,43.63
2023-05-09T00:48:35.701Z,43.83
2023-05-09T00:53:38.605Z,43.50
2023-05-09T00:58:41.487Z,43.75
2023-05-09T01:03:44.867Z,43.22
2023-05-09T01:08:54.939Z,43.66
2023-05-09T01:14:12.612Z,43.48
2023-05-09T01:19:35.691Z,43.28
2023-05-09T01:24:59.917Z,43.54
2023-05-09T01:30:05.102Z,43.30
2023-05-09T01:35:12.475Z,43.35
2023-05-09T01:40:17.071Z,43.77
2023-05-09T01:45:21.236Z,42.97
2023-05-09T01:50:24.507Z,43.46
2023-05-09T01:55:29.810Z,43.20
2023-05-09T02:00:36.128Z,43.50
2023-05-09T02:05:40.205Z,42.96
2023-05-09T02:10:44.817Z,43.84
2023-05-09T02:15:48.139Z,42.81
2023-05-09T02:20:52.860Z,43.03
2023-05-09T02:25:55.854Z,42.65
2023-05-09T02:31:02.445Z,43.18
2023-05-09T02:36:06.223Z,43.01
2023-05-09T02:41:16.485Z,42.79
2023-05-09T02:46:19.005Z,42.59
2023-05-09T02:51:21.526Z,43.05
2023-05-09T02:56:24.069Z,42.57
2023-05-09T03:01:26.703Z,43.37
2023-05-09T03:06:29.274Z,43.25
2023-05-09T03:11:31.929Z,42.84
2023-05-09T03:16:35.260Z,42.71
2023-05-09T03:21:39.074Z,43.41
2023-05-09T03:26:41.926Z,42.81
2023-05-09T03:31:44.639Z,42.49
2023-05-09T03:36:47.117Z,42.69
2023-05-09T03:41:51.117Z,42.77
2023-05-09T03:46:53.729Z,42.95
2023-05-09T03:51:56.950Z,41.90
2023-05-09T03:57:01.861Z,42.97
2023-05-09T04:02:05.167Z,42.75
2023-05-09T04:07:07.822Z,42.47
2023-05-09T04:12:11.096Z,41.79
2023-05-09T04:17:13.750Z,41.41
2023-05-09T04:22:16.754Z,41.15
2023-05-09T04:27:19.841Z,41.24
2023-05-09T04:32:23.610Z,40.28
2023-05-09T04:37:26.807Z,39.89
2023-05-09T04:42:30.480Z,39.50
2023-05-09T04:47:33.172Z,39.22
2023-05-09T04:52:36.165Z,39.29
2023-05-09T04:57:38.772Z,38.68
2023-05-09T05:02:41.777Z,38.01
2023-05-09T05:07:44.635Z,37.90
2023-05-09T05:12:52.239Z,38.11
2023-05-09T05:17:54.871Z,37.91
2023-05-09T05:23:02.907Z,38.07
2023-05-09T05:28:05.594Z,38.55
2023-05-09T05:33:08.274Z,38.78
2023-05-09T05:38:11.159Z,38.80
2023-05-09T05:43:14.703Z,38.65
2023-05-09T05:48:17.284Z,38.54
2023-05-09T05:53:21.500Z,38.40
2023-05-09T05:58:26.968Z,38.24
2023-05-09T06:03:29.951Z,37.47
2023-05-09T06:08:36.442Z,37.59
2023-05-09T06:13:38.968Z,36.27
2023-05-09T06:18:42.475Z,36.04
2023-05-09T06:23:57.801Z,34.84
2023-05-09T06:29:06.405Z,34.89
2023-05-09T06:34:09.097Z,34.06
2023-05-09T06:39:11.683Z,33.35
2023-05-09T06:44:14.121Z,32.94
2023-05-09T06:49:16.739Z,32.53
2023-05-09T06:54:19.305Z,32.02
2023-05-09T06:59:21.805Z,31.80
2023-05-09T07:04:24.232Z,32.29
2023-05-09T07:09:28.959Z,31.78
2023-05-09T07:14:31.442Z,31.45
2023-05-09T07:19:33.913Z,31.85
2023-05-09T07:24:36.467Z,32.24
2023-05-09T07:29:39.130Z,31.16
2023-05-09T07:34:41.597Z,30.89
2023-05-09T07:39:44.128Z,29.96
2023-05-09T07:44:46.635Z,30.06
2023-05-09T07:49:49.255Z,29.83
2023-05-09T07:54:51.923Z,29.08
2023-05-09T07:59:54.642Z,28.33
2023-05-09T08:04:57.392Z,28.94
2023-05-09T08:10:00.010Z,27.88
2023-05-09T08:15:02.848Z,28.12
2023-05-09T08:20:09.576Z,26.94
2023-05-09T08:25:14.223Z,26.52
2023-05-09T08:30:16.950Z,25.91
2023-05-09T08:35:19.575Z,26.36
2023-05-09T08:40:22.090Z,25.67
2023-05-09T08:45:29.644Z,25.48
2023-05-09T08:50:32.450Z,25.82
2023-05-09T08:55:35.572Z,25.85
2023-05-09T09:00:40.816Z,25.39
2023-05-09T09:05:43.753Z,24.54
2023-05-09T09:10:47.787Z,24.85
2023-05-09T09:15:53.413Z,24.74
2023-05-09T09:21:06.183Z,23.56
2023-05-09T09:26:08.774Z,24.54
2023-05-09T09:31:21.777Z,24.64
2023-05-09T09:36:29.369Z,23.99
2023-05-09T09:41:32.502Z,23.07
2023-05-09T09:46:45.290Z,22.99
2023-05-09T09:52:05.941Z,22.10
2023-05-09T09:57:08.402Z,22.06
2023-05-09T10:02:12.647Z,21.46
2023-05-09T10:07:15.909Z,22.26
2023-05-09T10:12:20.414Z,21.53
2023-05-09T10:17:23.862Z,21.77
2023-05-09T10:22:26.882Z,22.93
2023-05-09T10:27:32.481Z,22.41
2023-05-09T10:32:55.257Z,23.40
2023-05-09T10:37:58.248Z,24.51
2023-05-09T10:43:00.845Z,25.34
2023-05-09T10:48:09.146Z,25.85
2023-05-09T10:53:14.494Z,26.07
2023-05-09T10:58:20.875Z,27.00
2023-05-09T11:03:26.153Z,26.61
2023-05-09T11:08:30.956Z,27.19
2023-05-09T11:13:40.470Z,27.04
2023-05-09T11:18:52.362Z,26.92
2023-05-09T11:23:55.441Z,27.09
2023-05-09T11:29:00.134Z,27.04
2023-05-09T11:34:05.484Z,27.10
2023-05-09T11:39:11.821Z,27.72
2023-05-09T11:44:20.180Z,28.13
2023-05-09T11:49:22.665Z,28.06
2023-05-09T11:54:25.613Z,27.93
2023-05-09T11:59:28.932Z,28.58
2023-05-09T12:04:32.578Z,27.97
2023-05-09T12:09:39.013Z,28.46
2023-05-09T12:14:42.179Z,28.48
2023-05-09T12:19:44.848Z,28.92
2023-05-09T12:24:47.506Z,28.90
2023-05-09T12:29:50.330Z,29.09
2023-05-09T12:34:54.168Z,29.31
2023-05-09T12:40:15.535Z,29.23
2023-05-09T12:45:18.777Z,29.01
2023-05-09T12:50:21.764Z,29.93
2023-05-09T12:55:24.610Z,29.58
2023-05-09T13:00:27.617Z,29.63
2023-05-09T13:05:32.449Z,30.17
2023-05-09T13:10:35.021Z,30.45
2023-05-09T13:15:37.751Z,30.35
2023-05-09T13:20:40.408Z,30.22
2023-05-09T13:25:43.030Z,30.83
2023-05-09T13:30:46.205Z,31.02
2023-05-09T13:35:49.224Z,31.50
2023-05-09T13:40:51.877Z,31.27
2023-05-09T13:45:54.445Z,30.92
2023-05-09T13:50:58.033Z,31.24
2023-05-09T13:56:00.640Z,31.29
2023-05-09T14:01:03.559Z,31.05
2023-05-09T14:06:06.351Z,31.95
2023-05-09T14:11:09.686Z,31.76
2023-05-09T14:16:12.316Z,31.58
2023-05-09T14:21:15.460Z,32.29
2023-05-09T14:26:18.265Z,32.20
2023-05-09T14:31:20.813Z,32.48
2023-05-09T14:36:24.329Z,32.50
2023-05-09T14:41:27.147Z,32.63
2023-05-09T14:46:29.714Z,32.80
2023-05-09T14:51:33.626Z,32.15
2023-05-09T14:56:36.129Z,32.41
2023-05-09T15:01:39.134Z,32.26
2023-05-09T15:06:41.812Z,32.84
2023-05-09T15:11:48.292Z,33.12
2023-05-09T15:16:55.574Z,33.36
2023-05-09T15:21:59.233Z,33.42
2023-05-09T15:27:01.806Z,33.55
2023-05-09T15:32:04.404Z,33.57
2023-05-09T15:37:06.982Z,33.83
2023-05-09T15:42:13.523Z,34.33
2023-05-09T15:47:16.151Z,34.44
2023-05-09T15:52:18.674Z,34.94
2023-05-09T15:57:21.191Z,34.79
2023-05-09T16:02:24.254Z,35.06
2023-05-09T16:07:27.208Z,35.13
2023-05-09T16:12:33.073Z,35.33
2023-05-09T16:17:35.659Z,35.61
2023-05-09T16:22:39.481Z,35.76
2023-05-09T16:27:42.056Z,35.86
2023-05-09T16:32:45.075Z,36.25
2023-05-09T16:37:49.090Z,36.50
2023-05-09T16:42:51.618Z,36.58
2023-05-09T16:47:55.944Z,36.78
2023-05-09T16:52:58.343Z,36.82
2023-05-09T16:58:00.880Z,36.83
2023-05-09T17:03:03.931Z,36.97
2023-05-09T17:08:06.473Z,37.08
2023-05-09T17:13:09.131Z,37.15
2023-05-09T17:18:19.336Z,37.47
2023-05-09T17:23:28.238Z,37.54
2023-05-09T17:28:30.741Z,37.34
2023-05-09T17:33:33.281Z,37.27
2023-05-09T17:38:36.195Z,36.93
2023-05-09T17:43:38.879Z,36.85
2023-05-09T17:48:41.517Z,36.63
2023-05-09T17:53:44.271Z,36.21
2023-05-09T17:58:47.529Z,36.09
2023-05-09T18:03:50.255Z,36.02
2023-05-09T18:08:53.002Z,36.17
2023-05-09T18:13:55.945Z,36.09
2023-05-09T18:18:59.611Z,36.39
2023-05-09T18:24:02.145Z,36.38
2023-05-09T18:29:04.661Z,35.90
2023-05-09T18:34:08.032Z,35.84
2023-05-09T18:39:12.110Z,35.90
2023-05-09T18:44:14.823Z,35.74
2023-05-09T18:49:17.835Z,35.75
2023-05-09T18:54:20.801Z,35.47
2023-05-09T18:59:24.468Z,35.54
2023-05-09T19:04:27.106Z,35.43
2023-05-09T19:09:30.950Z,35.56
2023-05-09T19:14:33.486Z,35.36
2023-05-09T19:19:36.067Z,35.75
2023-05-09T19:24:38.616Z,35.38
2023-05-09T19:29:41.065Z,35.30
2023-05-09T19:34:43.630Z,35.13
2023-05-09T19:39:46.191Z,35.22
2023-05-09T19:44:48.756Z,35.18
2023-05-09T19:49:51.422Z,35.21
2023-05-09T19:54:54.565Z,35.59
2023-05-09T19:59:58.293Z,35.55
2023-05-09T20:05:01.038Z,35.74
2023-05-09T20:10:03.716Z,36.09
2023-05-09T20:15:08.351Z,36.36
2023-05-09T20:20:11.827Z,36.38
2023-05-09T20:25:15.043Z,36.52
2023-05-09T20:30:18.076Z,36.20
2023-05-09T20:35:20.844Z,36.62
2023-05-09T20:40:23.695Z,36.76
2023-05-09T20:45:26.411Z,36.39
2023-05-09T20:50:28.848Z,36.62
2023-05-09T20:55:31.351Z,36.86
2023-05-09T21:00:36.791Z,36.98
2023-05-09T21:05:39.480Z,36.52
2023-05-09T21:10:42.230Z,36.47
2023-05-09T21:15:45.095Z,36.96
2023-05-09T21:20:47.999Z,36.99
2023-05-09T21:25:50.486Z,37.61
2023-05-09T21:30:53.800Z,37.41
2023-05-09T21:35:56.235Z,38.43
2023-05-09T21:40:58.899Z,38.25
2023-05-09T21:46:01.401Z,38.51
2023-05-09T21:51:04.409Z,37.98
2023-05-09T21:56:08.431Z,38.18
2023-05-09T22:01:11.198Z,37.94
2023-05-09T22:06:13.945Z,38.14
2023-05-09T22:11:16.667Z,38.63
2023-05-09T22:16:19.287Z,38.63
2023-05-09T22:21:21.934Z,38.76
2023-05-09T22:26:24.362Z,39.71
2023-05-09T22:31:27.203Z,39.72
2023-05-09T22:36:29.842Z,39.17
2023-05-09T22:41:32.445Z,39.49
2023-05-09T22:46:34.857Z,40.30
2023-05-09T22:51:37.354Z,41.02
2023-05-09T22:56:39.841Z,41.17
2023-05-09T23:01:42.782Z,40.76
2023-05-09T23:06:45.278Z,41.84
2023-05-09T23:11:48.095Z,41.42
2023-05-09T23:16:51.240Z,41.34
2023-05-09T23:21:53.924Z,41.45
2023-05-09T23:26:56.480Z,41.16
2023-05-09T23:31:59.245Z,41.21
2023-05-09T23:37:04.442Z,41.27
2023-05-09T23:42:07.080Z,41.34
2023-05-09T23:47:09.786Z,40.96
2023-05-09T23:52:12.339Z,41.87
2023-05-09T23:57:14.926Z,41.37
